sensor_id;sensor_type;location;lat;lon;timestamp;pressure;altitude;pressure_sealevel;temperature;humidity
38912;BME280;28444;48.056;14.408;2023-07-20T00:01:51;97225.19;;;20.98;74.13
38912;BME280;28444;48.056;14.408;2023-07-20T00:04:18;97223.28;;;21.03;74.31
38912;BME280;28444;48.056;14.408;2023-07-20T00:06:45;97228.25;;;20.86;74.92
38912;BME280;28444;48.056;14.408;2023-07-20T00:09:12;97225.25;;;20.80;75.36
38912;BME280;28444;48.056;14.408;2023-07-20T00:11:39;97230.75;;;20.78;75.49
38912;BME280;28444;48.056;14.408;2023-07-20T00:14:06;97238.53;;;20.82;75.58
38912;BME280;28444;48.056;14.408;2023-07-20T00:16:33;97218.94;;;20.78;75.28
38912;BME280;28444;48.056;14.408;2023-07-20T00:18:59;97225.13;;;20.76;75.76
38912;BME280;28444;48.056;14.408;2023-07-20T00:21:26;97231.06;;;20.66;75.73
38912;BME280;28444;48.056;14.408;2023-07-20T00:23:53;97238.50;;;20.62;75.94
38912;BME280;28444;48.056;14.408;2023-07-20T00:26:19;97247.75;;;20.49;76.58
38912;BME280;28444;48.056;14.408;2023-07-20T00:28:49;97265.00;;;20.27;77.33
38912;BME280;28444;48.056;14.408;2023-07-20T00:31:16;97273.31;;;20.27;77.62
38912;BME280;28444;48.056;14.408;2023-07-20T00:33:43;97276.56;;;20.22;77.92
38912;BME280;28444;48.056;14.408;2023-07-20T00:36:11;97274.03;;;20.28;78.21
38912;BME280;28444;48.056;14.408;2023-07-20T00:38:37;97275.16;;;20.20;78.54
38912;BME280;28444;48.056;14.408;2023-07-20T00:41:04;97271.41;;;20.32;78.55
38912;BME280;28444;48.056;14.408;2023-07-20T00:43:31;97271.06;;;20.41;78.35
38912;BME280;28444;48.056;14.408;2023-07-20T00:45:58;97268.78;;;20.36;78.67
38912;BME280;28444;48.056;14.408;2023-07-20T00:48:25;97277.25;;;20.40;78.71
38912;BME280;28444;48.056;14.408;2023-07-20T00:50:52;97277.25;;;20.40;78.29
38912;BME280;28444;48.056;14.408;2023-07-20T00:53:19;97272.97;;;20.37;78.38
38912;BME280;28444;48.056;14.408;2023-07-20T00:55:45;97252.13;;;20.36;78.64
38912;BME280;28444;48.056;14.408;2023-07-20T00:58:12;97254.41;;;20.41;78.32
38912;BME280;28444;48.056;14.408;2023-07-20T01:00:39;97257.34;;;20.46;77.43
38912;BME280;28444;48.056;14.408;2023-07-20T01:03:05;97255.69;;;20.38;77.69
38912;BME280;28444;48.056;14.408;2023-07-20T01:05:56;97268.16;;;20.37;77.47
38912;BME280;28444;48.056;14.408;2023-07-20T01:11:31;97263.47;;;20.24;77.77
38912;BME280;28444;48.056;14.408;2023-07-20T01:14:02;97261.09;;;20.34;77.47
38912;BME280;28444;48.056;14.408;2023-07-20T01:16:29;97249.44;;;20.38;76.56
38912;BME280;28444;48.056;14.408;2023-07-20T01:18:56;97256.63;;;20.45;76.54
38912;BME280;28444;48.056;14.408;2023-07-20T01:21:31;97257.66;;;20.36;76.53
38912;BME280;28444;48.056;14.408;2023-07-20T01:31:56;97252.31;;;20.04;78.41
38912;BME280;28444;48.056;14.408;2023-07-20T01:34:24;97235.03;;;20.06;78.72
38912;BME280;28444;48.056;14.408;2023-07-20T01:36:53;97239.78;;;20.03;78.85
38912;BME280;28444;48.056;14.408;2023-07-20T01:39:21;97248.34;;;20.09;78.29
38912;BME280;28444;48.056;14.408;2023-07-20T01:41:48;97250.50;;;20.11;78.56
38912;BME280;28444;48.056;14.408;2023-07-20T01:44:15;97242.41;;;20.17;78.26
38912;BME280;28444;48.056;14.408;2023-07-20T01:46:42;97249.22;;;20.14;78.18
38912;BME280;28444;48.056;14.408;2023-07-20T01:49:08;97251.59;;;20.04;78.58
38912;BME280;28444;48.056;14.408;2023-07-20T01:51:35;97243.38;;;20.06;78.56
38912;BME280;28444;48.056;14.408;2023-07-20T01:54:02;97253.25;;;20.11;78.73
38912;BME280;28444;48.056;14.408;2023-07-20T01:56:28;97254.47;;;20.06;78.73
38912;BME280;28444;48.056;14.408;2023-07-20T01:58:55;97255.19;;;20.06;78.52
38912;BME280;28444;48.056;14.408;2023-07-20T02:01:22;97252.97;;;20.03;78.68
38912;BME280;28444;48.056;14.408;2023-07-20T02:03:48;97257.47;;;20.12;77.75
38912;BME280;28444;48.056;14.408;2023-07-20T02:06:15;97268.41;;;20.08;78.04
38912;BME280;28444;48.056;14.408;2023-07-20T02:08:42;97271.34;;;20.12;77.80
38912;BME280;28444;48.056;14.408;2023-07-20T02:11:08;97280.84;;;20.07;77.89
38912;BME280;28444;48.056;14.408;2023-07-20T02:13:36;97281.81;;;19.95;78.69
38912;BME280;28444;48.056;14.408;2023-07-20T02:16:03;97287.13;;;19.89;78.88
38912;BME280;28444;48.056;14.408;2023-07-20T02:18:30;97282.66;;;19.82;79.26
38912;BME280;28444;48.056;14.408;2023-07-20T02:20:56;97277.94;;;19.85;79.95
38912;BME280;28444;48.056;14.408;2023-07-20T02:23:23;97273.88;;;19.88;80.69
38912;BME280;28444;48.056;14.408;2023-07-20T02:25:50;97274.28;;;19.80;81.87
38912;BME280;28444;48.056;14.408;2023-07-20T02:28:16;97264.84;;;19.69;83.32
38912;BME280;28444;48.056;14.408;2023-07-20T02:30:43;97274.19;;;19.78;82.36
38912;BME280;28444;48.056;14.408;2023-07-20T02:33:09;97290.28;;;19.82;82.18
38912;BME280;28444;48.056;14.408;2023-07-20T02:35:36;97280.22;;;19.73;83.01
38912;BME280;28444;48.056;14.408;2023-07-20T02:38:03;97281.75;;;19.60;83.20
38912;BME280;28444;48.056;14.408;2023-07-20T02:40:30;97280.88;;;19.55;83.34
38912;BME280;28444;48.056;14.408;2023-07-20T02:42:56;97285.06;;;19.56;83.02
38912;BME280;28444;48.056;14.408;2023-07-20T02:45:23;97288.13;;;19.62;82.53
38912;BME280;28444;48.056;14.408;2023-07-20T02:47:50;97290.78;;;19.76;82.04
38912;BME280;28444;48.056;14.408;2023-07-20T02:50:16;97279.50;;;19.72;81.93
38912;BME280;28444;48.056;14.408;2023-07-20T02:52:43;97280.44;;;19.61;82.22
38912;BME280;28444;48.056;14.408;2023-07-20T02:55:10;97282.13;;;19.52;82.61
38912;BME280;28444;48.056;14.408;2023-07-20T02:57:36;97278.19;;;19.57;82.18
38912;BME280;28444;48.056;14.408;2023-07-20T03:00:04;97279.31;;;19.68;82.15
38912;BME280;28444;48.056;14.408;2023-07-20T03:02:32;97285.53;;;19.66;81.38
38912;BME280;28444;48.056;14.408;2023-07-20T03:04:59;97288.78;;;19.79;81.20
38912;BME280;28444;48.056;14.408;2023-07-20T03:07:28;97291.88;;;19.69;80.90
38912;BME280;28444;48.056;14.408;2023-07-20T03:09:55;97294.63;;;19.69;80.17
38912;BME280;28444;48.056;14.408;2023-07-20T03:12:21;97304.22;;;19.66;80.45
38912;BME280;28444;48.056;14.408;2023-07-20T03:14:48;97287.84;;;19.72;79.39
38912;BME280;28444;48.056;14.408;2023-07-20T03:17:15;97294.63;;;19.69;79.61
38912;BME280;28444;48.056;14.408;2023-07-20T03:19:41;97299.78;;;19.77;79.41
38912;BME280;28444;48.056;14.408;2023-07-20T03:22:09;97306.69;;;19.76;79.19
38912;BME280;28444;48.056;14.408;2023-07-20T03:24:36;97301.06;;;19.74;79.47
38912;BME280;28444;48.056;14.408;2023-07-20T03:27:02;97298.13;;;19.69;79.72
38912;BME280;28444;48.056;14.408;2023-07-20T03:29:31;97296.72;;;19.68;79.66
38912;BME280;28444;48.056;14.408;2023-07-20T03:31:58;97302.31;;;19.70;79.63
38912;BME280;28444;48.056;14.408;2023-07-20T03:34:25;97293.94;;;19.68;79.64
38912;BME280;28444;48.056;14.408;2023-07-20T03:36:52;97290.59;;;19.72;79.26
38912;BME280;28444;48.056;14.408;2023-07-20T03:39:19;97292.47;;;19.67;79.09
38912;BME280;28444;48.056;14.408;2023-07-20T03:41:46;97298.84;;;19.70;79.45
38912;BME280;28444;48.056;14.408;2023-07-20T03:44:12;97298.13;;;19.69;79.35
38912;BME280;28444;48.056;14.408;2023-07-20T03:46:39;97303.19;;;19.75;79.19
38912;BME280;28444;48.056;14.408;2023-07-20T03:49:06;97296.31;;;19.76;79.09
38912;BME280;28444;48.056;14.408;2023-07-20T03:51:32;97292.19;;;19.77;78.89
38912;BME280;28444;48.056;14.408;2023-07-20T03:53:59;97289.41;;;19.77;78.43
38912;BME280;28444;48.056;14.408;2023-07-20T03:56:26;97294.72;;;19.71;78.37
38912;BME280;28444;48.056;14.408;2023-07-20T03:58:53;97299.38;;;19.66;78.60
38912;BME280;28444;48.056;14.408;2023-07-20T04:01:19;97299.69;;;19.75;78.50
38912;BME280;28444;48.056;14.408;2023-07-20T04:03:46;97295.66;;;19.78;78.24
38912;BME280;28444;48.056;14.408;2023-07-20T04:06:15;97300.38;;;19.91;77.29
38912;BME280;28444;48.056;14.408;2023-07-20T04:08:44;97302.59;;;19.94;77.54
38912;BME280;28444;48.056;14.408;2023-07-20T04:11:11;97308.44;;;20.03;76.72
38912;BME280;28444;48.056;14.408;2023-07-20T04:13:37;97303.00;;;20.05;76.78
38912;BME280;28444;48.056;14.408;2023-07-20T04:16:04;97309.88;;;20.04;77.87
38912;BME280;28444;48.056;14.408;2023-07-20T04:18:31;97307.44;;;20.12;77.82
38912;BME280;28444;48.056;14.408;2023-07-20T04:20:57;97309.88;;;20.22;76.89
38912;BME280;28444;48.056;14.408;2023-07-20T04:23:24;97304.72;;;20.14;76.28
38912;BME280;28444;48.056;14.408;2023-07-20T04:25:51;97309.00;;;20.17;76.19
38912;BME280;28444;48.056;14.408;2023-07-20T04:28:18;97303.69;;;20.23;76.38
38912;BME280;28444;48.056;14.408;2023-07-20T04:30:44;97305.91;;;20.27;76.01
38912;BME280;28444;48.056;14.408;2023-07-20T04:33:11;97313.03;;;20.32;76.03
38912;BME280;28444;48.056;14.408;2023-07-20T04:35:52;97320.25;;;20.39;75.73
38912;BME280;28444;48.056;14.408;2023-07-20T04:38:20;97304.59;;;20.48;75.11
38912;BME280;28444;48.056;14.408;2023-07-20T04:40:48;97307.38;;;20.48;74.98
38912;BME280;28444;48.056;14.408;2023-07-20T04:43:16;97312.31;;;20.49;74.80
38912;BME280;28444;48.056;14.408;2023-07-20T04:45:43;97309.16;;;20.57;75.37
38912;BME280;28444;48.056;14.408;2023-07-20T04:48:11;97311.59;;;20.49;75.20
38912;BME280;28444;48.056;14.408;2023-07-20T04:50:40;97320.16;;;20.55;75.78
38912;BME280;28444;48.056;14.408;2023-07-20T04:53:08;97321.66;;;20.58;75.16
38912;BME280;28444;48.056;14.408;2023-07-20T04:55:37;97315.13;;;20.69;74.11
38912;BME280;28444;48.056;14.408;2023-07-20T04:58:05;97319.19;;;20.66;74.75
38912;BME280;28444;48.056;14.408;2023-07-20T05:00:35;97319.03;;;20.62;74.63
38912;BME280;28444;48.056;14.408;2023-07-20T05:03:01;97324.75;;;20.66;74.64
38912;BME280;28444;48.056;14.408;2023-07-20T05:05:28;97331.75;;;20.67;74.14
38912;BME280;28444;48.056;14.408;2023-07-20T05:07:55;97326.09;;;20.65;74.21
38912;BME280;28444;48.056;14.408;2023-07-20T05:10:23;97325.16;;;20.58;74.28
38912;BME280;28444;48.056;14.408;2023-07-20T05:12:50;97318.72;;;20.72;74.46
38912;BME280;28444;48.056;14.408;2023-07-20T05:15:17;97315.13;;;20.69;73.97
38912;BME280;28444;48.056;14.408;2023-07-20T05:17:43;97315.38;;;20.75;73.45
38912;BME280;28444;48.056;14.408;2023-07-20T05:20:10;97305.91;;;20.82;73.46
38912;BME280;28444;48.056;14.408;2023-07-20T05:22:38;97323.44;;;20.87;73.64
38912;BME280;28444;48.056;14.408;2023-07-20T05:25:10;97320.59;;;20.85;72.62
38912;BME280;28444;48.056;14.408;2023-07-20T05:27:37;97326.91;;;20.87;72.65
38912;BME280;28444;48.056;14.408;2023-07-20T05:30:04;97319.47;;;20.92;72.82
38912;BME280;28444;48.056;14.408;2023-07-20T05:32:31;97329.88;;;20.91;72.08
38912;BME280;28444;48.056;14.408;2023-07-20T05:34:58;97335.41;;;20.91;72.69
38912;BME280;28444;48.056;14.408;2023-07-20T05:37:25;97333.56;;;20.98;72.76
38912;BME280;28444;48.056;14.408;2023-07-20T05:39:51;97334.72;;;21.11;72.92
38912;BME280;28444;48.056;14.408;2023-07-20T05:42:18;97328.72;;;21.19;71.94
38912;BME280;28444;48.056;14.408;2023-07-20T05:44:45;97337.84;;;21.41;70.90
38912;BME280;28444;48.056;14.408;2023-07-20T05:47:13;97332.84;;;21.57;70.82
38912;BME280;28444;48.056;14.408;2023-07-20T05:49:40;97340.53;;;21.79;70.18
38912;BME280;28444;48.056;14.408;2023-07-20T05:52:07;97342.06;;;22.06;67.19
38912;BME280;28444;48.056;14.408;2023-07-20T05:54:33;97361.19;;;21.94;67.39
38912;BME280;28444;48.056;14.408;2023-07-20T05:57:00;97351.84;;;21.85;67.43
38912;BME280;28444;48.056;14.408;2023-07-20T05:59:27;97353.22;;;21.64;67.70
38912;BME280;28444;48.056;14.408;2023-07-20T06:01:58;97356.22;;;21.70;68.18
38912;BME280;28444;48.056;14.408;2023-07-20T06:04:24;97349.06;;;21.85;68.58
38912;BME280;28444;48.056;14.408;2023-07-20T06:06:51;97356.94;;;21.93;67.21
38912;BME280;28444;48.056;14.408;2023-07-20T06:09:18;97350.31;;;22.02;67.01
38912;BME280;28444;48.056;14.408;2023-07-20T06:11:45;97354.94;;;21.95;67.12
38912;BME280;28444;48.056;14.408;2023-07-20T06:14:12;97363.19;;;21.91;67.16
38912;BME280;28444;48.056;14.408;2023-07-20T06:16:38;97361.56;;;21.64;67.42
38912;BME280;28444;48.056;14.408;2023-07-20T06:19:05;97363.03;;;21.65;67.34
38912;BME280;28444;48.056;14.408;2023-07-20T06:21:32;97370.66;;;21.65;67.57
38912;BME280;28444;48.056;14.408;2023-07-20T06:23:58;97368.72;;;21.69;67.62
38912;BME280;28444;48.056;14.408;2023-07-20T06:26:25;97369.41;;;21.70;67.72
38912;BME280;28444;48.056;14.408;2023-07-20T06:28:52;97364.59;;;21.92;66.64
38912;BME280;28444;48.056;14.408;2023-07-20T06:31:19;97364.53;;;21.90;67.67
38912;BME280;28444;48.056;14.408;2023-07-20T06:33:46;97370.03;;;21.88;66.53
38912;BME280;28444;48.056;14.408;2023-07-20T06:36:13;97363.94;;;21.72;66.40
38912;BME280;28444;48.056;14.408;2023-07-20T06:38:39;97376.66;;;21.57;67.45
38912;BME280;28444;48.056;14.408;2023-07-20T06:41:07;97377.94;;;21.54;68.29
38912;BME280;28444;48.056;14.408;2023-07-20T06:43:36;97378.56;;;21.72;68.09
38912;BME280;28444;48.056;14.408;2023-07-20T06:46:06;97385.63;;;21.75;67.76
38912;BME280;28444;48.056;14.408;2023-07-20T06:48:32;97377.66;;;21.87;67.95
38912;BME280;28444;48.056;14.408;2023-07-20T06:51:19;97384.59;;;21.86;67.12
38912;BME280;28444;48.056;14.408;2023-07-20T06:53:47;97386.75;;;22.10;67.11
38912;BME280;28444;48.056;14.408;2023-07-20T06:56:13;97381.66;;;22.24;67.01
38912;BME280;28444;48.056;14.408;2023-07-20T06:58:40;97391.75;;;22.35;65.65
38912;BME280;28444;48.056;14.408;2023-07-20T07:01:08;97392.47;;;22.14;65.75
38912;BME280;28444;48.056;14.408;2023-07-20T07:03:34;97382.53;;;21.87;66.01
38912;BME280;28444;48.056;14.408;2023-07-20T07:06:02;97392.69;;;22.00;66.50
38912;BME280;28444;48.056;14.408;2023-07-20T07:08:30;97397.91;;;21.68;66.18
38912;BME280;28444;48.056;14.408;2023-07-20T07:10:56;97405.09;;;21.55;66.77
38912;BME280;28444;48.056;14.408;2023-07-20T07:13:23;97399.88;;;21.46;67.84
38912;BME280;28444;48.056;14.408;2023-07-20T07:15:50;97399.31;;;21.49;67.47
38912;BME280;28444;48.056;14.408;2023-07-20T07:18:17;97415.44;;;21.53;67.94
38912;BME280;28444;48.056;14.408;2023-07-20T07:20:53;97400.03;;;21.50;67.48
38912;BME280;28444;48.056;14.408;2023-07-20T07:23:20;97402.59;;;21.83;68.09
38912;BME280;28444;48.056;14.408;2023-07-20T07:25:47;97410.34;;;21.87;66.16
38912;BME280;28444;48.056;14.408;2023-07-20T07:28:14;97411.78;;;21.88;66.35
38912;BME280;28444;48.056;14.408;2023-07-20T07:30:41;97418.34;;;21.77;65.80
38912;BME280;28444;48.056;14.408;2023-07-20T07:33:07;97410.03;;;21.99;64.97
38912;BME280;28444;48.056;14.408;2023-07-20T07:35:35;97413.16;;;22.09;65.09
38912;BME280;28444;48.056;14.408;2023-07-20T07:38:02;97407.94;;;22.19;65.67
38912;BME280;28444;48.056;14.408;2023-07-20T07:40:49;97411.25;;;22.35;66.03
38912;BME280;28444;48.056;14.408;2023-07-20T07:43:16;97406.31;;;22.56;66.01
38912;BME280;28444;48.056;14.408;2023-07-20T07:45:42;97412.13;;;22.64;65.04
38912;BME280;28444;48.056;14.408;2023-07-20T07:48:09;97412.94;;;22.45;63.93
38912;BME280;28444;48.056;14.408;2023-07-20T07:50:39;97413.69;;;22.25;64.32
38912;BME280;28444;48.056;14.408;2023-07-20T07:53:07;97423.22;;;22.18;64.98
38912;BME280;28444;48.056;14.408;2023-07-20T07:55:35;97418.84;;;22.13;65.69
38912;BME280;28444;48.056;14.408;2023-07-20T07:58:01;97419.09;;;22.19;66.09
38912;BME280;28444;48.056;14.408;2023-07-20T08:00:28;97428.03;;;21.96;65.64
38912;BME280;28444;48.056;14.408;2023-07-20T08:02:55;97426.03;;;21.78;67.19
38912;BME280;28444;48.056;14.408;2023-07-20T08:05:22;97424.28;;;21.67;66.36
38912;BME280;28444;48.056;14.408;2023-07-20T08:07:48;97430.41;;;21.44;67.01
38912;BME280;28444;48.056;14.408;2023-07-20T08:10:15;97431.69;;;21.41;66.38
38912;BME280;28444;48.056;14.408;2023-07-20T08:12:42;97441.47;;;21.42;66.17
38912;BME280;28444;48.056;14.408;2023-07-20T08:15:11;97441.41;;;21.39;65.72
38912;BME280;28444;48.056;14.408;2023-07-20T08:17:38;97435.69;;;21.35;65.77
38912;BME280;28444;48.056;14.408;2023-07-20T08:20:06;97445.53;;;21.58;64.72
38912;BME280;28444;48.056;14.408;2023-07-20T08:22:33;97444.25;;;21.61;65.03
38912;BME280;28444;48.056;14.408;2023-07-20T08:24:59;97447.66;;;21.60;65.08
38912;BME280;28444;48.056;14.408;2023-07-20T08:27:26;97452.03;;;21.65;64.82
38912;BME280;28444;48.056;14.408;2023-07-20T08:29:53;97458.94;;;21.64;64.29
38912;BME280;28444;48.056;14.408;2023-07-20T08:32:19;97452.88;;;21.70;63.68
38912;BME280;28444;48.056;14.408;2023-07-20T08:34:46;97455.94;;;21.58;63.84
38912;BME280;28444;48.056;14.408;2023-07-20T08:37:12;97456.31;;;21.30;64.81
38912;BME280;28444;48.056;14.408;2023-07-20T08:39:39;97458.72;;;21.38;65.93
38912;BME280;28444;48.056;14.408;2023-07-20T08:42:06;97464.84;;;21.34;66.96
38912;BME280;28444;48.056;14.408;2023-07-20T08:44:33;97453.38;;;21.44;67.33
38912;BME280;28444;48.056;14.408;2023-07-20T08:47:01;97463.13;;;21.45;67.35
38912;BME280;28444;48.056;14.408;2023-07-20T08:49:31;97463.22;;;21.67;66.05
38912;BME280;28444;48.056;14.408;2023-07-20T08:51:59;97466.50;;;21.61;64.88
38912;BME280;28444;48.056;14.408;2023-07-20T08:54:32;97467.78;;;21.78;65.42
38912;BME280;28444;48.056;14.408;2023-07-20T08:57:02;97465.78;;;21.81;65.00
38912;BME280;28444;48.056;14.408;2023-07-20T08:59:30;97462.44;;;21.84;64.93
38912;BME280;28444;48.056;14.408;2023-07-20T09:01:58;97459.88;;;21.91;63.99
38912;BME280;28444;48.056;14.408;2023-07-20T09:04:25;97471.22;;;21.77;64.40
38912;BME280;28444;48.056;14.408;2023-07-20T09:06:52;97467.16;;;21.80;64.37
38912;BME280;28444;48.056;14.408;2023-07-20T09:09:19;97465.28;;;21.86;63.65
38912;BME280;28444;48.056;14.408;2023-07-20T09:11:49;97458.13;;;22.01;62.00
38912;BME280;28444;48.056;14.408;2023-07-20T09:14:16;97452.91;;;22.11;61.69
38912;BME280;28444;48.056;14.408;2023-07-20T09:16:55;97451.06;;;22.62;60.36
38912;BME280;28444;48.056;14.408;2023-07-20T09:19:22;97443.44;;;22.87;60.90
38912;BME280;28444;48.056;14.408;2023-07-20T09:21:50;97452.22;;;22.99;59.32
38912;BME280;28444;48.056;14.408;2023-07-20T09:24:18;97453.25;;;22.88;58.60
38912;BME280;28444;48.056;14.408;2023-07-20T09:26:47;97453.75;;;23.04;59.42
38912;BME280;28444;48.056;14.408;2023-07-20T09:29:20;97446.06;;;23.02;59.65
38912;BME280;28444;48.056;14.408;2023-07-20T09:32:00;97442.94;;;23.16;58.92
38912;BME280;28444;48.056;14.408;2023-07-20T09:34:31;97447.00;;;23.11;59.32
38912;BME280;28444;48.056;14.408;2023-07-20T09:37:01;97445.16;;;23.20;58.95
38912;BME280;28444;48.056;14.408;2023-07-20T09:39:29;97435.38;;;23.19;58.96
38912;BME280;28444;48.056;14.408;2023-07-20T09:42:00;97446.34;;;23.37;59.24
38912;BME280;28444;48.056;14.408;2023-07-20T09:44:31;97448.41;;;23.36;57.22
38912;BME280;28444;48.056;14.408;2023-07-20T09:47:03;97448.91;;;23.28;57.35
38912;BME280;28444;48.056;14.408;2023-07-20T09:49:30;97451.25;;;23.38;56.75
38912;BME280;28444;48.056;14.408;2023-07-20T09:52:17;97443.06;;;23.44;57.28
38912;BME280;28444;48.056;14.408;2023-07-20T09:55:06;97440.81;;;23.39;57.26
38912;BME280;28444;48.056;14.408;2023-07-20T09:57:33;97444.97;;;23.38;58.49
38912;BME280;28444;48.056;14.408;2023-07-20T10:00:06;97444.94;;;23.62;56.06
38912;BME280;28444;48.056;14.408;2023-07-20T10:02:44;97444.59;;;23.49;55.25
38912;BME280;28444;48.056;14.408;2023-07-20T10:05:13;97446.09;;;23.28;56.69
38912;BME280;28444;48.056;14.408;2023-07-20T10:08:03;97439.75;;;23.26;56.59
38912;BME280;28444;48.056;14.408;2023-07-20T10:10:35;97439.38;;;23.38;56.56
38912;BME280;28444;48.056;14.408;2023-07-20T10:13:03;97434.97;;;23.54;56.16
38912;BME280;28444;48.056;14.408;2023-07-20T10:15:36;97435.78;;;23.59;56.37
38912;BME280;28444;48.056;14.408;2023-07-20T10:18:09;97432.75;;;23.75;55.61
38912;BME280;28444;48.056;14.408;2023-07-20T10:20:39;97432.09;;;23.76;54.77
38912;BME280;28444;48.056;14.408;2023-07-20T10:23:29;97432.56;;;23.95;56.38
38912;BME280;28444;48.056;14.408;2023-07-20T10:25:57;97438.72;;;24.17;54.99
38912;BME280;28444;48.056;14.408;2023-07-20T10:28:26;97427.84;;;24.30;54.15
38912;BME280;28444;48.056;14.408;2023-07-20T10:30:54;97430.66;;;24.30;53.42
38912;BME280;28444;48.056;14.408;2023-07-20T10:33:21;97421.75;;;24.37;53.39
38912;BME280;28444;48.056;14.408;2023-07-20T10:38:19;97427.00;;;24.23;53.25
38912;BME280;28444;48.056;14.408;2023-07-20T10:40:55;97435.31;;;24.21;52.68
38912;BME280;28444;48.056;14.408;2023-07-20T10:43:22;97424.72;;;24.15;53.80
38912;BME280;28444;48.056;14.408;2023-07-20T10:48:18;97428.13;;;24.12;52.87
38912;BME280;28444;48.056;14.408;2023-07-20T10:51:12;97416.97;;;24.14;53.28
38912;BME280;28444;48.056;14.408;2023-07-20T10:53:42;97420.03;;;23.96;53.42
38912;BME280;28444;48.056;14.408;2023-07-20T10:56:13;97411.44;;;24.16;52.83
38912;BME280;28444;48.056;14.408;2023-07-20T10:58:41;97420.53;;;24.16;51.46
38912;BME280;28444;48.056;14.408;2023-07-20T11:01:13;97421.84;;;24.13;50.77
38912;BME280;28444;48.056;14.408;2023-07-20T11:03:42;97415.00;;;24.18;51.02
38912;BME280;28444;48.056;14.408;2023-07-20T11:09:04;97417.16;;;24.22;51.79
38912;BME280;28444;48.056;14.408;2023-07-20T11:11:35;97410.16;;;24.49;51.48
38912;BME280;28444;48.056;14.408;2023-07-20T11:14:20;97402.63;;;24.56;52.11
38912;BME280;28444;48.056;14.408;2023-07-20T11:16:48;97403.34;;;24.88;51.98
38912;BME280;28444;48.056;14.408;2023-07-20T11:21:50;97405.00;;;24.67;50.86
38912;BME280;28444;48.056;14.408;2023-07-20T11:24:28;97402.72;;;24.60;51.94
38912;BME280;28444;48.056;14.408;2023-07-20T11:26:55;97404.16;;;24.33;51.03
38912;BME280;28444;48.056;14.408;2023-07-20T11:29:23;97386.53;;;23.96;52.08
38912;BME280;28444;48.056;14.408;2023-07-20T11:31:58;97394.66;;;23.86;51.86
38912;BME280;28444;48.056;14.408;2023-07-20T11:34:25;97389.53;;;24.04;50.92
38912;BME280;28444;48.056;14.408;2023-07-20T11:36:53;97386.34;;;24.18;51.36
38912;BME280;28444;48.056;14.408;2023-07-20T11:39:24;97388.59;;;24.23;52.58
38912;BME280;28444;48.056;14.408;2023-07-20T11:41:56;97385.25;;;24.59;52.69
38912;BME280;28444;48.056;14.408;2023-07-20T11:44:24;97376.03;;;24.87;50.64
38912;BME280;28444;48.056;14.408;2023-07-20T11:47:07;97376.19;;;24.93;51.72
38912;BME280;28444;48.056;14.408;2023-07-20T11:49:38;97377.78;;;25.02;50.10
38912;BME280;28444;48.056;14.408;2023-07-20T11:52:10;97394.59;;;24.72;51.05
38912;BME280;28444;48.056;14.408;2023-07-20T11:54:40;97386.72;;;24.62;50.29
38912;BME280;28444;48.056;14.408;2023-07-20T11:57:18;97388.38;;;24.43;49.80
38912;BME280;28444;48.056;14.408;2023-07-20T11:59:58;97382.25;;;24.21;49.93
38912;BME280;28444;48.056;14.408;2023-07-20T12:02:30;97386.41;;;24.20;51.54
38912;BME280;28444;48.056;14.408;2023-07-20T12:04:57;97385.94;;;24.30;51.55
38912;BME280;28444;48.056;14.408;2023-07-20T12:07:26;97376.91;;;24.31;50.09
38912;BME280;28444;48.056;14.408;2023-07-20T12:12:40;97380.38;;;24.01;49.63
38912;BME280;28444;48.056;14.408;2023-07-20T12:15:23;97368.28;;;24.21;50.21
38912;BME280;28444;48.056;14.408;2023-07-20T12:17:54;97369.31;;;24.36;49.69
38912;BME280;28444;48.056;14.408;2023-07-20T12:20:29;97367.66;;;24.24;49.67
38912;BME280;28444;48.056;14.408;2023-07-20T12:23:00;97378.47;;;24.38;50.58
38912;BME280;28444;48.056;14.408;2023-07-20T12:25:46;97366.78;;;24.16;49.23
38912;BME280;28444;48.056;14.408;2023-07-20T12:28:14;97362.06;;;23.94;49.24
38912;BME280;28444;48.056;14.408;2023-07-20T12:30:43;97356.31;;;23.88;50.41
38912;BME280;28444;48.056;14.408;2023-07-20T12:33:10;97362.44;;;24.11;50.11
38912;BME280;28444;48.056;14.408;2023-07-20T12:35:38;97349.66;;;24.32;51.21
38912;BME280;28444;48.056;14.408;2023-07-20T12:38:05;97349.47;;;24.52;51.28
38912;BME280;28444;48.056;14.408;2023-07-20T12:40:34;97347.75;;;24.70;50.34
38912;BME280;28444;48.056;14.408;2023-07-20T12:43:01;97345.06;;;24.74;49.57
38912;BME280;28444;48.056;14.408;2023-07-20T12:45:27;97342.63;;;24.29;47.94
38912;BME280;28444;48.056;14.408;2023-07-20T12:47:54;97340.31;;;24.19;48.96
38912;BME280;28444;48.056;14.408;2023-07-20T12:50:21;97336.66;;;24.40;48.36
38912;BME280;28444;48.056;14.408;2023-07-20T12:52:47;97347.31;;;24.50;48.88
38912;BME280;28444;48.056;14.408;2023-07-20T12:55:14;97335.41;;;24.47;48.04
38912;BME280;28444;48.056;14.408;2023-07-20T12:57:41;97345.63;;;24.37;46.91
38912;BME280;28444;48.056;14.408;2023-07-20T13:00:10;97338.56;;;24.34;48.01
38912;BME280;28444;48.056;14.408;2023-07-20T13:02:38;97335.72;;;24.32;48.33
38912;BME280;28444;48.056;14.408;2023-07-20T13:05:05;97337.19;;;24.35;48.30
38912;BME280;28444;48.056;14.408;2023-07-20T13:07:36;97338.19;;;24.47;47.91
38912;BME280;28444;48.056;14.408;2023-07-20T13:10:07;97335.59;;;24.58;48.30
38912;BME280;28444;48.056;14.408;2023-07-20T13:12:34;97335.03;;;24.63;48.82
38912;BME280;28444;48.056;14.408;2023-07-20T13:15:03;97327.53;;;25.06;48.16
38912;BME280;28444;48.056;14.408;2023-07-20T13:17:36;97330.66;;;25.23;48.01
38912;BME280;28444;48.056;14.408;2023-07-20T13:20:04;97327.94;;;25.27;46.44
38912;BME280;28444;48.056;14.408;2023-07-20T13:22:31;97323.06;;;24.93;47.61